Weather at Incheon International Airport

Public forecast

Using degrees Celsius for public forecast. Weather courtesy of forecast.io.

Current aviation weather report (METAR) for Incheon International Airport

2022/11/30 07:00 (retrieved 32 minutes ago)

RKSI 300700Z 31010KT 270V340 9999 FEW030 M04/M13 Q1033 NOSIG

Aviation forecast (TAF) for Incheon International Airport

2022/11/30 06:00 (retrieved 2 hours ago)

TAF RKSI 300500Z 3006/0112 34015G25KT CAVOK TNM07/3021Z TXM01/0105Z BECMG 3012/3014 36010KT BECMG 3021/3023 07007KT 9999 FEW015 BKN035 BECMG 0103/0105 01006KT CAVOK BECMG 0107/0109 31010KT BECMG 0110/0112 01012KT